Time;durP1;ratioP1;P1;durP2;ratioP2;P2;SDS_P1;SDS_P2;PMS_P1;PMS_P2;Temp;Humidity;BMP_temperature;BMP_pressure;BME280_temperature;BME280_humidity;BME280_pressure;Samples;Min_cycle;Max_cycle;Signal;HPM_P1;HPM_P2
2022/04/03 00:01:12;;;;;;;3.30;1.80;;;2.40;99.90;;;;;;5074782;28;20221;-58
2022/04/03 00:03:37;;;;;;;3.63;2.10;;;2.40;99.90;;;;;;5074701;28;20254;-58
2022/04/03 00:06:03;;;;;;;2.60;1.90;;;2.40;99.90;;;;;;5074698;28;20261;-56
2022/04/03 00:08:31;;;;;;;3.83;2.17;;;2.40;99.90;;;;;;5074413;28;20215;-57
2022/04/03 00:10:57;;;;;;;3.63;2.10;;;2.30;99.90;;;;;;5074924;28;20170;-57
2022/04/03 00:13:23;;;;;;;3.67;2.13;;;2.20;99.90;;;;;;5074550;28;20215;-57
2022/04/03 00:15:49;;;;;;;2.60;1.90;;;2.20;99.90;;;;;;5074687;28;20635;-58
2022/04/03 00:18:14;;;;;;;3.77;2.23;;;2.20;99.90;;;;;;5074582;28;20179;-58
2022/04/03 00:20:41;;;;;;;2.80;2.03;;;2.20;99.90;;;;;;5074474;28;20255;-57
2022/04/03 00:23:08;;;;;;;3.07;1.80;;;2.20;99.90;;;;;;5074201;28;20663;-57
2022/04/03 00:25:34;;;;;;;5.07;2.10;;;2.10;99.90;;;;;;5056503;28;20492;-58
2022/04/03 00:28:00;;;;;;;4.50;2.13;;;2.00;99.90;;;;;;5074176;28;20560;-58
2022/04/03 00:30:26;;;;;;;4.17;2.00;;;1.90;99.90;;;;;;5074213;28;20185;-58
2022/04/03 00:32:52;;;;;;;3.03;2.20;;;1.90;99.90;;;;;;5074046;28;20208;-57
2022/04/03 00:35:20;;;;;;;4.63;2.00;;;1.80;99.90;;;;;;5074088;28;20514;-57
2022/04/03 00:37:46;;;;;;;2.87;1.93;;;1.70;99.90;;;;;;5074317;28;20183;-58
2022/04/03 00:40:12;;;;;;;2.80;2.10;;;1.70;99.90;;;;;;5074216;28;20615;-59
2022/04/03 00:42:39;;;;;;;2.90;2.07;;;1.70;99.90;;;;;;5074102;28;20185;-58
2022/04/03 00:45:05;;;;;;;4.33;2.43;;;1.60;99.90;;;;;;5056092;28;20254;-59
2022/04/03 00:47:32;;;;;;;5.83;2.20;;;1.70;99.90;;;;;;5073820;28;20172;-59
2022/04/03 00:49:58;;;;;;;3.90;2.40;;;1.70;99.90;;;;;;5073802;28;20254;-59
2022/04/03 00:52:24;;;;;;;3.97;2.43;;;1.60;99.90;;;;;;5073758;28;20272;-58
2022/04/03 00:54:50;;;;;;;6.07;3.20;;;1.60;99.90;;;;;;5073389;28;20213;-59
2022/04/03 00:57:16;;;;;;;4.80;3.40;;;1.50;99.90;;;;;;5073627;28;20212;-58
2022/04/03 00:59:42;;;;;;;6.10;3.03;;;1.40;99.90;;;;;;5073664;28;20181;-58
2022/04/03 01:02:09;;;;;;;4.53;3.20;;;1.40;99.90;;;;;;5073523;28;20632;-58
2022/04/03 01:04:37;;;;;;;4.90;3.17;;;1.40;99.90;;;;;;5073808;28;20188;-58
2022/04/03 01:07:03;;;;;;;4.57;3.17;;;1.40;99.90;;;;;;5073726;28;20227;-58
2022/04/03 01:09:28;;;;;;;7.63;5.70;;;1.30;99.90;;;;;;5055910;28;20619;-58
2022/04/03 01:11:54;;;;;;;8.43;5.80;;;1.40;99.90;;;;;;5073840;28;20237;-58
2022/04/03 01:14:33;;;;;;;5.80;4.97;;;1.40;99.90;;;;;;5074420;28;20179;-58
2022/04/03 01:16:59;;;;;;;3.80;3.00;;;1.40;99.90;;;;;;5074307;28;20193;-58
2022/04/03 01:19:25;;;;;;;4.53;2.70;;;1.30;99.90;;;;;;5055478;28;20174;-58
2022/04/03 01:21:51;;;;;;;3.70;2.70;;;1.20;99.90;;;;;;5073568;28;20170;-59
2022/04/03 01:24:18;;;;;;;5.60;2.97;;;1.00;99.90;;;;;;5073480;28;20179;-59
2022/04/03 01:26:44;;;;;;;3.93;2.80;;;0.90;99.90;;;;;;5073290;28;20637;-58
2022/04/03 01:29:10;;;;;;;3.43;2.93;;;0.90;99.90;;;;;;5073204;28;20221;-58
2022/04/03 01:31:36;;;;;;;3.77;2.83;;;0.80;99.90;;;;;;5055239;28;20569;-58
2022/04/03 01:34:01;;;;;;;3.20;2.90;;;0.80;99.90;;;;;;5055452;28;20207;-59
2022/04/03 01:36:27;;;;;;;3.27;2.80;;;0.80;99.90;;;;;;5073250;28;20189;-58
2022/04/03 01:38:53;;;;;;;4.67;2.90;;;0.80;99.90;;;;;;5073536;28;20580;-58
2022/04/03 01:41:18;;;;;;;3.23;2.73;;;0.60;99.90;;;;;;5073432;28;20185;-59
2022/04/03 01:43:44;;;;;;;4.20;3.10;;;0.50;99.90;;;;;;5073512;28;20204;-58
2022/04/03 01:46:10;;;;;;;4.57;3.40;;;0.50;99.90;;;;;;5072670;28;20209;-58
2022/04/03 01:48:35;;;;;;;5.60;3.70;;;0.60;99.90;;;;;;5072871;28;20221;-58
2022/04/03 01:51:01;;;;;;;5.73;3.57;;;0.70;99.90;;;;;;5073225;28;20673;-59
2022/04/03 01:53:27;;;;;;;5.27;3.33;;;0.50;99.90;;;;;;5055342;28;20182;-58
2022/04/03 01:56:00;;;;;;;6.07;3.33;;;0.60;99.90;;;;;;5073066;28;20695;-58
2022/04/03 01:58:25;;;;;;;5.07;3.90;;;0.70;99.90;;;;;;5072989;28;20260;-58
2022/04/03 02:00:51;;;;;;;7.27;3.70;;;0.70;99.90;;;;;;5072859;28;20270;-58
2022/04/03 02:03:17;;;;;;;5.63;3.20;;;0.50;99.90;;;;;;5072715;28;20190;-58
2022/04/03 02:05:43;;;;;;;4.20;3.60;;;0.50;99.90;;;;;;5040252;28;20205;-58
2022/04/03 02:08:09;;;;;;;4.57;3.37;;;0.50;99.90;;;;;;5076871;28;20197;-58
2022/04/03 02:10:35;;;;;;;7.03;3.60;;;0.50;99.90;;;;;;5077042;28;20185;-58
2022/04/03 02:13:00;;;;;;;5.07;3.70;;;0.50;99.90;;;;;;5077226;28;20639;-58
2022/04/03 02:15:26;;;;;;;5.37;3.70;;;0.40;99.90;;;;;;5058927;28;20185;-59
2022/04/03 02:17:52;;;;;;;6.90;3.40;;;0.40;99.90;;;;;;5076754;28;20186;-58
2022/04/03 02:20:17;;;;;;;4.50;3.70;;;0.30;99.90;;;;;;5076734;28;20217;-58
2022/04/03 02:22:43;;;;;;;6.23;3.90;;;0.30;99.90;;;;;;5076680;28;20257;-58
2022/04/03 02:25:13;;;;;;;4.93;3.50;;;0.30;99.90;;;;;;5058961;28;20189;-58
2022/04/03 02:27:40;;;;;;;4.60;4.10;;;0.30;99.90;;;;;;5076710;28;20184;-59
2022/04/03 02:30:10;;;;;;;4.27;3.47;;;0.40;99.90;;;;;;5076485;28;20533;-58
2022/04/03 02:32:37;;;;;;;5.50;3.70;;;0.50;99.90;;;;;;5076453;28;20171;-59
2022/04/03 02:35:06;;;;;;;5.53;4.20;;;0.50;99.90;;;;;;5076893;28;20625;-58
2022/04/03 02:37:33;;;;;;;4.60;3.70;;;0.40;99.90;;;;;;5076651;28;20309;-58
2022/04/03 02:39:59;;;;;;;4.43;3.63;;;0.40;99.90;;;;;;5076455;28;20223;-58
2022/04/03 02:42:25;;;;;;;4.73;3.60;;;0.40;99.90;;;;;;5076258;28;20184;-58
2022/04/03 02:44:51;;;;;;;4.77;3.77;;;0.40;99.90;;;;;;5076524;28;20185;-58
2022/04/03 02:47:18;;;;;;;4.93;3.77;;;0.40;99.90;;;;;;5076435;28;20615;-59
2022/04/03 02:49:43;;;;;;;5.03;3.47;;;0.40;99.90;;;;;;5076239;28;20293;-58
2022/04/03 02:52:09;;;;;;;4.30;3.40;;;0.40;99.90;;;;;;5076261;28;20216;-58
2022/04/03 02:54:35;;;;;;;4.97;3.80;;;0.50;99.90;;;;;;5076204;28;20643;-59
2022/04/03 02:57:01;;;;;;;5.10;3.60;;;0.70;99.90;;;;;;5076045;28;20185;-58
2022/04/03 02:59:27;;;;;;;7.03;4.00;;;0.80;99.90;;;;;;5075970;28;20181;-61
2022/04/03 03:01:53;;;;;;;6.20;3.87;;;1.00;99.90;;;;;;5076274;28;20652;-58
2022/04/03 03:04:18;;;;;;;4.30;3.67;;;1.20;99.90;;;;;;5075831;28;20197;-58
2022/04/03 03:06:44;;;;;;;4.40;3.83;;;1.10;99.90;;;;;;5076287;28;20175;-59
2022/04/03 03:09:10;;;;;;;6.53;3.33;;;1.00;99.90;;;;;;5075740;28;20766;-59
2022/04/03 03:11:35;;;;;;;4.50;3.70;;;1.00;99.90;;;;;;5075796;28;20208;-59
2022/04/03 03:14:01;;;;;;;6.23;3.40;;;0.90;99.90;;;;;;5075705;28;20186;-58
2022/04/03 03:16:27;;;;;;;5.40;4.17;;;1.00;99.90;;;;;;5075343;28;20178;-58
2022/04/03 03:18:52;;;;;;;4.90;4.40;;;0.90;99.90;;;;;;5075832;28;20540;-59
2022/04/03 03:21:18;;;;;;;5.40;3.63;;;0.90;99.90;;;;;;5075203;28;20189;-57
2022/04/03 03:23:43;;;;;;;7.67;3.70;;;0.90;99.90;;;;;;5075713;28;20284;-57
2022/04/03 03:26:09;;;;;;;4.47;3.80;;;0.90;99.90;;;;;;5057609;28;20190;-57
2022/04/03 03:28:35;;;;;;;4.93;3.83;;;0.80;99.90;;;;;;5075362;28;20241;-57
2022/04/03 03:31:01;;;;;;;5.40;4.00;;;0.80;99.90;;;;;;5075686;28;20575;-57
2022/04/03 03:33:26;;;;;;;5.77;4.33;;;0.80;99.90;;;;;;5075543;28;20283;-57
2022/04/03 03:35:52;;;;;;;5.20;4.03;;;0.70;99.90;;;;;;5075542;28;20171;-57
2022/04/03 03:38:18;;;;;;;5.83;4.63;;;0.80;99.90;;;;;;5075351;28;20182;-57
2022/04/03 03:40:44;;;;;;;5.60;3.87;;;0.70;99.90;;;;;;5075238;28;20533;-57
2022/04/03 03:43:11;;;;;;;5.67;4.00;;;0.80;99.90;;;;;;5075131;28;20179;-58
2022/04/03 03:45:37;;;;;;;4.17;3.50;;;0.90;99.90;;;;;;5075286;28;20186;-57
2022/04/03 03:48:03;;;;;;;3.70;3.33;;;0.80;99.90;;;;;;5075155;28;20199;-59
2022/04/03 03:50:28;;;;;;;4.47;3.47;;;1.00;99.90;;;;;;5057440;28;20186;-58
2022/04/03 03:52:54;;;;;;;3.37;3.07;;;1.00;99.90;;;;;;5075106;28;20236;-60
2022/04/03 03:55:20;;;;;;;4.27;3.47;;;0.90;99.90;;;;;;5075394;28;20176;-58
2022/04/03 03:57:47;;;;;;;3.87;3.40;;;0.80;99.90;;;;;;5074933;28;20185;-57
2022/04/03 04:00:15;;;;;;;6.23;3.47;;;0.80;99.90;;;;;;5075083;28;20742;-57
2022/04/03 04:02:40;;;;;;;3.90;3.17;;;0.80;99.90;;;;;;5057153;28;20510;-57
2022/04/03 04:05:07;;;;;;;6.97;3.00;;;0.80;99.90;;;;;;5075174;28;20247;-57
2022/04/03 04:07:41;;;;;;;4.40;3.10;;;0.70;99.90;;;;;;5074519;28;20672;-58
2022/04/03 04:10:07;;;;;;;4.37;3.17;;;0.60;99.90;;;;;;5074630;28;20178;-57
2022/04/03 04:12:34;;;;;;;4.37;2.80;;;0.50;99.90;;;;;;5074846;28;20571;-57
2022/04/03 04:15:00;;;;;;;4.33;3.20;;;0.60;99.90;;;;;;5074771;28;20178;-58
2022/04/03 04:17:26;;;;;;;4.73;2.90;;;0.50;99.90;;;;;;5074667;28;20533;-59
2022/04/03 04:19:52;;;;;;;4.00;2.87;;;0.50;99.90;;;;;;5074489;28;20190;-59
2022/04/03 04:22:18;;;;;;;6.00;3.07;;;0.40;99.90;;;;;;5074428;28;20564;-58
2022/04/03 04:24:43;;;;;;;4.23;3.00;;;0.30;99.90;;;;;;5074315;28;20248;-58
2022/04/03 04:27:09;;;;;;;3.53;2.30;;;0.30;99.90;;;;;;5074264;28;20190;-58
2022/04/03 04:29:35;;;;;;;5.20;3.20;;;0.30;99.90;;;;;;5055593;28;20799;-58
2022/04/03 04:32:00;;;;;;;5.90;3.17;;;0.20;99.90;;;;;;5074215;28;20181;-58
2022/04/03 04:34:26;;;;;;;3.67;3.03;;;0.20;99.90;;;;;;5074166;28;20190;-59
2022/04/03 04:36:51;;;;;;;3.67;2.93;;;0.20;99.90;;;;;;5056359;28;20690;-58
2022/04/03 04:39:17;;;;;;;4.27;3.23;;;0.30;99.90;;;;;;5074053;28;20237;-58
2022/04/03 04:41:42;;;;;;;4.13;2.97;;;0.30;99.90;;;;;;5073707;28;20186;-58
2022/04/03 04:44:09;;;;;;;3.90;3.20;;;0.30;99.90;;;;;;5056332;28;20178;-59
2022/04/03 04:46:35;;;;;;;6.67;3.33;;;0.30;99.90;;;;;;5073954;28;20636;-59
2022/04/03 04:49:01;;;;;;;3.40;3.10;;;0.40;99.90;;;;;;5073953;28;20236;-59
2022/04/03 04:51:26;;;;;;;4.57;3.17;;;0.40;99.90;;;;;;5073867;28;20229;-58
2022/04/03 04:53:52;;;;;;;4.30;2.90;;;0.40;99.90;;;;;;5074032;28;20183;-58
2022/04/03 04:56:18;;;;;;;3.20;2.87;;;0.30;99.90;;;;;;5074013;28;20655;-58
2022/04/03 04:58:43;;;;;;;4.03;3.17;;;0.20;99.90;;;;;;5073872;28;20242;-59
2022/04/03 05:01:09;;;;;;;3.90;3.03;;;0.20;99.90;;;;;;5073821;28;20182;-58
2022/04/03 05:03:35;;;;;;;4.43;3.23;;;0.10;99.90;;;;;;5073571;28;20206;-58
2022/04/03 05:06:01;;;;;;;6.43;3.30;;;0.10;99.90;;;;;;5022720;28;20664;-58
2022/04/03 05:08:28;;;;;;;5.33;3.40;;;0.10;99.90;;;;;;5073584;28;20263;-58
2022/04/03 05:10:53;;;;;;;4.63;3.57;;;0.10;99.90;;;;;;5055797;28;20187;-58
2022/04/03 05:13:25;;;;;;;5.03;3.77;;;0.10;99.90;;;;;;5055714;28;20194;-58
2022/04/03 05:15:52;;;;;;;5.53;4.00;;;0.20;99.90;;;;;;5073685;28;20589;-59
2022/04/03 05:18:18;;;;;;;4.93;3.60;;;0.20;99.90;;;;;;5073560;28;20178;-58
2022/04/03 05:20:43;;;;;;;3.53;2.73;;;0.30;99.90;;;;;;5073415;28;20265;-58
2022/04/03 05:23:09;;;;;;;4.57;3.50;;;0.30;99.90;;;;;;5073298;28;20189;-59
2022/04/03 05:25:35;;;;;;;5.40;3.73;;;0.00;99.90;;;;;;5073390;28;20239;-59
2022/04/03 05:28:00;;;;;;;7.70;3.07;;;0.10;99.90;;;;;;5073334;28;20216;-58
2022/04/03 05:30:26;;;;;;;6.97;4.00;;;0.00;99.90;;;;;;5073367;28;20218;-58
2022/04/03 05:32:52;;;;;;;7.50;3.67;;;0.10;99.90;;;;;;5073182;28;20225;-59
2022/04/03 05:35:17;;;;;;;5.40;3.90;;;0.10;99.90;;;;;;5073312;28;20177;-58
2022/04/03 05:37:44;;;;;;;6.07;3.80;;;0.00;99.90;;;;;;5055109;28;20190;-58
2022/04/03 05:40:11;;;;;;;6.33;4.07;;;0.10;99.90;;;;;;5073113;28;20177;-58
2022/04/03 05:42:38;;;;;;;6.90;4.40;;;0.10;99.90;;;;;;5073066;28;20683;-58
2022/04/03 05:45:05;;;;;;;8.27;4.83;;;0.10;99.90;;;;;;5073178;28;20184;-59
2022/04/03 05:47:31;;;;;;;5.23;4.00;;;0.20;99.90;;;;;;5072652;28;20189;-59
2022/04/03 05:49:58;;;;;;;5.60;4.30;;;0.20;99.90;;;;;;5055229;28;20313;-59
2022/04/03 05:52:24;;;;;;;4.57;3.80;;;0.30;99.90;;;;;;5073177;28;20508;-59
2022/04/03 05:54:50;;;;;;;6.43;4.10;;;0.30;99.90;;;;;;5073059;28;20202;-59
2022/04/03 05:57:16;;;;;;;6.17;4.53;;;0.40;99.90;;;;;;5055139;28;20631;-59
2022/04/03 05:59:41;;;;;;;6.90;4.67;;;0.50;99.90;;;;;;5072933;28;20272;-59
2022/04/03 06:02:08;;;;;;;8.47;5.10;;;0.50;99.90;;;;;;5072792;28;20179;-59
2022/04/03 06:04:33;;;;;;;9.13;5.13;;;0.60;99.90;;;;;;5072644;28;20193;-59
2022/04/03 06:06:59;;;;;;;9.83;5.57;;;0.70;99.90;;;;;;5054899;28;20272;-59
2022/04/03 06:09:25;;;;;;;10.73;6.27;;;0.80;99.90;;;;;;5079483;28;20295;-59
2022/04/03 06:11:52;;;;;;;15.03;7.53;;;0.90;99.90;;;;;;5092164;28;20189;-59
2022/04/03 06:14:17;;;;;;;10.67;5.40;;;1.00;99.90;;;;;;5092786;28;20173;-59
2022/04/03 06:16:43;;;;;;;10.00;5.73;;;1.10;99.90;;;;;;5093067;28;20257;-59
2022/04/03 06:19:08;;;;;;;9.37;6.13;;;1.20;99.90;;;;;;5092666;28;20205;-59
2022/04/03 06:21:34;;;;;;;11.03;5.57;;;1.40;99.90;;;;;;5092881;28;20704;-59
2022/04/03 06:24:00;;;;;;;6.90;5.13;;;1.70;99.90;;;;;;5093205;28;20260;-59
2022/04/03 06:26:25;;;;;;;6.67;4.70;;;2.00;99.90;;;;;;5074631;28;20659;-59
2022/04/03 06:28:51;;;;;;;8.27;5.03;;;2.30;99.90;;;;;;5056369;28;20722;-59
2022/04/03 06:31:17;;;;;;;7.97;5.60;;;2.40;99.90;;;;;;5091081;28;20197;-59
2022/04/03 06:33:42;;;;;;;11.17;7.33;;;2.80;99.90;;;;;;5091941;28;20193;-59
2022/04/03 06:36:08;;;;;;;11.73;9.53;;;3.00;99.90;;;;;;5074031;28;20221;-59
2022/04/03 06:38:34;;;;;;;12.53;10.17;;;3.30;99.90;;;;;;5091543;28;20181;-59
2022/04/03 06:40:59;;;;;;;11.10;9.90;;;3.50;99.90;;;;;;5092774;28;20576;-59
2022/04/03 06:43:28;;;;;;;6.17;5.10;;;3.80;99.90;;;;;;5092807;28;20180;-59
2022/04/03 06:45:55;;;;;;;5.73;4.70;;;3.90;99.90;;;;;;5092681;28;20222;-58
2022/04/03 06:48:21;;;;;;;5.47;3.80;;;3.80;99.90;;;;;;5074593;28;20220;-59
2022/04/03 06:50:47;;;;;;;7.17;3.23;;;4.00;99.90;;;;;;5058058;28;20177;-58
2022/04/03 06:53:13;;;;;;;4.00;3.60;;;4.30;99.90;;;;;;5096375;28;20181;-58
2022/04/03 06:55:39;;;;;;;4.00;3.60;;;4.40;99.90;;;;;;5096370;28;20184;-58
2022/04/03 06:58:05;;;;;;;5.97;4.17;;;4.50;99.90;;;;;;5096517;28;20185;-58
2022/04/03 07:00:30;;;;;;;4.97;3.83;;;4.60;99.90;;;;;;5096305;28;20627;-58
2022/04/03 07:02:56;;;;;;;7.00;4.03;;;4.80;99.90;;;;;;5096279;28;20185;-58
2022/04/03 07:05:22;;;;;;;4.83;4.07;;;4.80;99.90;;;;;;5096225;28;20192;-59
2022/04/03 07:07:51;;;;;;;5.07;3.90;;;4.80;99.90;;;;;;5061406;28;20188;-59
2022/04/03 07:10:17;;;;;;;6.43;3.97;;;4.70;99.90;;;;;;5096282;28;20181;-59
2022/04/03 07:12:42;;;;;;;4.73;4.20;;;4.80;99.90;;;;;;5096093;28;20173;-59
2022/04/03 07:15:11;;;;;;;4.50;3.73;;;5.10;99.90;;;;;;5096090;28;20177;-59
2022/04/03 07:17:46;;;;;;;4.95;3.55;;;5.10;99.90;;;;;;5096021;28;20705;-59
2022/04/03 07:20:15;;;;;;;3.65;2.75;;;5.50;99.90;;;;;;5096173;28;20198;-59
2022/04/03 07:22:44;;;;;;;4.72;2.90;;;5.80;99.90;;;;;;5096324;28;20227;-59
2022/04/03 07:25:13;;;;;;;4.15;2.90;;;5.50;99.90;;;;;;5095884;28;20176;-59
2022/04/03 07:27:40;;;;;;;5.40;2.90;;;5.80;99.90;;;;;;5095903;28;20293;-59
2022/04/03 07:30:08;;;;;;;3.10;2.42;;;6.00;99.90;;;;;;5095881;28;20234;-59
2022/04/03 07:32:36;;;;;;;3.95;3.00;;;5.90;99.90;;;;;;5077479;28;20201;-59
2022/04/03 07:35:03;;;;;;;3.85;2.83;;;6.20;99.90;;;;;;5095972;28;20177;-59
2022/04/03 07:37:29;;;;;;;4.05;2.72;;;6.30;99.90;;;;;;5095727;28;20639;-59
2022/04/03 07:39:55;;;;;;;4.03;2.70;;;6.50;99.90;;;;;;5077559;28;20603;-59
2022/04/03 07:42:21;;;;;;;3.28;2.65;;;6.60;99.90;;;;;;5095325;28;20204;-59
2022/04/03 07:44:46;;;;;;;4.80;2.97;;;6.60;99.90;;;;;;5094631;28;20264;-59
2022/04/03 07:47:14;;;;;;;2.95;2.50;;;6.90;99.90;;;;;;5094140;28;20181;-59
2022/04/03 07:49:40;;;;;;;3.85;2.83;;;7.10;99.90;;;;;;5094883;28;20278;-59
2022/04/03 07:52:06;;;;;;;3.17;2.15;;;7.40;99.90;;;;;;5095538;28;20644;-59
2022/04/03 07:54:32;;;;;;;4.03;2.60;;;7.50;99.90;;;;;;5095278;28;20174;-59
2022/04/03 07:56:58;;;;;;;3.47;2.72;;;7.70;99.90;;;;;;5095267;28;20177;-59
2022/04/03 07:59:23;;;;;;;3.30;3.00;;;7.80;99.90;;;;;;5076955;28;20188;-59
2022/04/03 08:01:49;;;;;;;3.92;2.70;;;7.60;99.90;;;;;;5094820;28;20197;-59
2022/04/03 08:04:15;;;;;;;3.30;2.97;;;7.60;99.90;;;;;;5094768;28;20195;-59
2022/04/03 08:06:41;;;;;;;6.07;3.30;;;7.90;99.90;;;;;;5094555;28;20298;-59
2022/04/03 08:09:07;;;;;;;4.03;2.83;;;8.10;99.90;;;;;;5093180;28;20560;-59
2022/04/03 08:11:33;;;;;;;3.72;2.90;;;8.20;99.90;;;;;;5093646;28;20183;-59
2022/04/03 08:13:59;;;;;;;3.13;2.70;;;8.20;99.90;;;;;;5093341;28;20654;-59
2022/04/03 08:16:25;;;;;;;3.83;2.65;;;7.60;99.90;;;;;;5094309;28;20198;-59
2022/04/03 08:18:50;;;;;;;3.80;2.53;;;7.80;99.90;;;;;;5094770;28;20273;-59
2022/04/03 08:21:18;;;;;;;3.67;2.25;;;7.80;99.90;;;;;;5094757;28;20201;-59
2022/04/03 08:23:44;;;;;;;4.75;2.10;;;8.00;99.90;;;;;;5094572;28;20186;-59
2022/04/03 08:26:12;;;;;;;3.35;2.20;;;7.80;99.90;;;;;;5059862;28;20185;-59
2022/04/03 08:28:37;;;;;;;2.53;2.03;;;7.90;99.90;;;;;;5094409;28;20198;-59
2022/04/03 08:31:03;;;;;;;3.53;2.00;;;8.20;99.90;;;;;;5094749;28;20178;-59
2022/04/03 08:33:28;;;;;;;4.53;2.38;;;8.50;99.90;;;;;;5094569;28;20627;-59
2022/04/03 08:35:55;;;;;;;4.10;2.22;;;8.60;99.90;;;;;;5094539;28;20257;-59
2022/04/03 08:38:21;;;;;;;2.58;1.70;;;8.70;99.90;;;;;;5094359;28;20238;-59
2022/04/03 08:40:46;;;;;;;3.47;1.92;;;8.90;99.90;;;;;;5094252;28;20173;-59
2022/04/03 08:43:12;;;;;;;3.35;2.30;;;9.10;99.90;;;;;;5093783;28;20178;-60
2022/04/03 08:45:38;;;;;;;2.38;1.80;;;9.30;99.90;;;;;;5093880;28;20186;-59
2022/04/03 08:48:07;;;;;;;2.20;2.00;;;9.40;99.90;;;;;;5076378;28;20205;-59
2022/04/03 08:50:38;;;;;;;4.70;2.45;;;9.00;99.50;;;;;;5094135;28;20231;-59
2022/04/03 08:53:06;;;;;;;2.92;1.92;;;8.60;99.90;;;;;;5094052;28;20245;-59
2022/04/03 08:55:32;;;;;;;2.70;1.80;;;8.90;99.90;;;;;;5093902;28;20177;-59
2022/04/03 08:57:58;;;;;;;3.78;2.25;;;9.30;99.90;;;;;;5075934;28;20655;-60
2022/04/03 09:00:24;;;;;;;2.40;1.95;;;9.40;99.90;;;;;;5094083;28;20629;-59
2022/04/03 09:02:51;;;;;;;3.10;2.00;;;9.40;99.90;;;;;;5094125;28;20253;-59
2022/04/03 09:05:17;;;;;;;2.42;1.70;;;9.20;99.00;;;;;;5093874;28;20223;-60
2022/04/03 09:07:44;;;;;;;4.20;1.77;;;9.10;98.10;;;;;;5093728;28;20177;-60
2022/04/03 09:10:10;;;;;;;3.15;1.63;;;8.80;96.80;;;;;;5093666;28;20533;-60
2022/04/03 09:12:50;;;;;;;2.63;1.70;;;8.70;97.50;;;;;;5093609;28;20722;-59
2022/04/03 09:15:18;;;;;;;2.15;1.77;;;8.90;98.20;;;;;;5092901;28;20192;-60
2022/04/03 09:17:49;;;;;;;2.78;1.80;;;8.80;98.50;;;;;;5093667;28;20173;-60
2022/04/03 09:20:23;;;;;;;2.72;1.77;;;8.80;98.40;;;;;;5093552;28;20182;-59
2022/04/03 09:22:51;;;;;;;3.33;1.90;;;8.60;98.30;;;;;;5093812;28;20163;-60
2022/04/03 09:25:23;;;;;;;1.80;1.67;;;8.80;99.60;;;;;;5093673;28;20182;-60
2022/04/03 09:27:55;;;;;;;1.98;1.80;;;9.00;98.50;;;;;;5093544;28;20595;-60
2022/04/03 09:30:28;;;;;;;1.75;1.38;;;9.20;95.70;;;;;;5093463;28;20277;-60
2022/04/03 09:32:56;;;;;;;3.10;2.00;;;9.10;96.70;;;;;;5076544;28;20173;-60
2022/04/03 09:35:33;;;;;;;221.32;194.98;;;9.60;98.30;;;;;;5093718;28;20174;-60
2022/04/03 09:38:17;;;;;;;4.38;3.97;;;9.80;95.90;;;;;;5093514;28;20200;-60
2022/04/03 09:40:47;;;;;;;1.63;1.52;;;10.10;97.60;;;;;;5093441;28;20186;-60
2022/04/03 09:43:16;;;;;;;2.35;2.03;;;9.80;93.70;;;;;;5093217;28;20177;-60
2022/04/03 09:45:49;;;;;;;2.90;1.70;;;9.80;97.90;;;;;;5093148;28;20230;-60
2022/04/03 09:48:23;;;;;;;2.55;1.70;;;9.70;95.10;;;;;;5093207;28;20197;-60
2022/04/03 09:51:19;;;;;;;1.92;1.75;;;9.50;94.70;;;;;;5075052;28;20264;-60
2022/04/03 09:54:02;;;;;;;2.88;1.73;;;9.30;96.30;;;;;;5093109;28;20174;-60
2022/04/03 09:56:31;;;;;;;5.20;4.70;;;9.50;94.80;;;;;;5093380;28;20162;-60
2022/04/03 09:59:00;;;;;;;3.00;2.80;;;9.40;95.60;;;;;;5090907;28;20182;-60
2022/04/03 10:01:31;;;;;;;3.03;1.85;;;9.60;94.20;;;;;;5091807;28;20178;-60
2022/04/03 10:04:00;;;;;;;2.08;1.75;;;10.10;95.90;;;;;;5092976;28;20197;-59
2022/04/03 10:06:26;;;;;;;1.73;1.60;;;10.60;92.20;;;;;;5093072;28;20256;-60
2022/04/03 10:08:52;;;;;;;1.98;1.70;;;10.80;90.90;;;;;;5093000;28;20567;-60
2022/04/03 10:11:19;;;;;;;3.17;1.25;;;10.70;85.20;;;;;;5093234;28;20178;-60
2022/04/03 10:13:45;;;;;;;3.53;1.70;;;10.70;86.40;;;;;;5093094;28;20166;-59
2022/04/03 10:16:14;;;;;;;3.55;1.80;;;10.80;90.60;;;;;;5093084;28;20170;-59
2022/04/03 10:18:41;;;;;;;3.90;1.55;;;11.40;91.80;;;;;;5092905;28;20174;-60
2022/04/03 10:21:29;;;;;;;1.92;1.35;;;11.00;86.20;;;;;;5075104;28;20524;-60
2022/04/03 10:24:04;;;;;;;2.00;1.50;;;10.70;90.40;;;;;;5075170;28;20182;-60
2022/04/03 10:26:34;;;;;;;1.73;1.30;;;10.60;86.50;;;;;;5093874;28;20169;-60
2022/04/03 10:29:00;;;;;;;1.40;1.30;;;10.90;84.80;;;;;;5096878;28;20653;-61
2022/04/03 10:31:26;;;;;;;1.02;0.98;;;11.00;82.10;;;;;;5096781;28;20166;-60
2022/04/03 10:33:52;;;;;;;1.88;1.20;;;11.30;80.20;;;;;;5097178;28;20174;-60
2022/04/03 10:36:33;;;;;;;1.55;1.20;;;11.40;76.50;;;;;;5096885;28;20209;-61
2022/04/03 10:39:06;;;;;;;2.03;1.30;;;11.30;72.30;;;;;;5096834;28;20174;-60
2022/04/03 10:41:39;;;;;;;1.58;1.20;;;11.10;75.00;;;;;;5096745;28;20174;-61
2022/04/03 10:44:13;;;;;;;1.90;1.40;;;10.40;77.50;;;;;;5096585;28;20180;-61
2022/04/03 10:47:03;;;;;;;2.17;1.45;;;10.50;83.30;;;;;;5096514;28;20570;-61
2022/04/03 10:50:00;;;;;;;2.45;1.60;;;9.90;81.10;;;;;;5096627;28;20263;-60
2022/04/03 10:52:45;;;;;;;2.92;1.70;;;9.90;92.70;;;;;;5096743;28;20197;-61
2022/04/03 10:55:15;;;;;;;3.58;2.30;;;9.90;95.00;;;;;;5096332;28;20256;-61
2022/04/03 10:57:46;;;;;;;3.05;1.83;;;9.80;94.00;;;;;;5096332;28;20559;-61
2022/04/03 11:00:12;;;;;;;2.83;2.42;;;9.80;93.70;;;;;;5096342;28;20185;-60
2022/04/03 11:02:52;;;;;;;2.53;2.00;;;10.00;93.30;;;;;;5096286;28;20174;-60
2022/04/03 11:05:26;;;;;;;1.88;1.50;;;10.10;92.00;;;;;;5078107;28;20208;-60
2022/04/03 11:07:54;;;;;;;3.53;1.02;;;9.80;88.50;;;;;;5096226;28;20173;-60
2022/04/03 11:10:58;;;;;;;1.85;1.70;;;9.90;84.40;;;;;;5096064;28;20238;-60
2022/04/03 11:13:44;;;;;;;1.40;1.30;;;10.30;85.60;;;;;;5095651;28;20182;-60
2022/04/03 11:16:12;;;;;;;1.48;1.10;;;10.90;82.00;;;;;;5095635;28;20663;-60
2022/04/03 11:18:41;;;;;;;2.50;2.30;;;10.60;69.60;;;;;;5095983;28;20247;-61
2022/04/03 11:21:14;;;;;;;2.40;2.20;;;10.70;73.30;;;;;;5095979;28;20174;-60
2022/04/03 11:23:52;;;;;;;4.07;3.75;;;10.80;77.10;;;;;;5095863;28;20165;-60
2022/04/03 11:26:19;;;;;;;2.13;1.48;;;10.60;71.00;;;;;;5095975;28;20628;-60
2022/04/03 11:28:46;;;;;;;2.78;2.00;;;10.50;71.60;;;;;;5077695;28;20198;-60
2022/04/03 11:31:12;;;;;;;2.75;2.13;;;10.60;76.50;;;;;;5077810;28;20178;-61
2022/04/03 11:33:38;;;;;;;3.97;3.00;;;10.60;73.80;;;;;;5095549;28;20193;-60
2022/04/03 11:36:06;;;;;;;6.25;3.65;;;10.30;74.20;;;;;;5095799;28;20189;-60
2022/04/03 11:38:39;;;;;;;5.65;3.80;;;10.30;76.10;;;;;;5095318;28;20178;-60
2022/04/03 11:41:06;;;;;;;3.55;2.60;;;9.80;69.20;;;;;;5095533;28;20179;-61
2022/04/03 11:43:32;;;;;;;9.48;6.30;;;9.80;69.50;;;;;;5095545;28;20174;-60
2022/04/03 11:45:59;;;;;;;4.00;2.85;;;9.70;73.90;;;;;;5095535;28;20177;-60
2022/04/03 11:48:30;;;;;;;1.85;1.23;;;9.60;78.80;;;;;;5095287;28;20236;-59
2022/04/03 11:51:23;;;;;;;3.13;1.40;;;9.40;77.00;;;;;;5095459;28;20253;-60
2022/04/03 11:53:59;;;;;;;3.25;1.67;;;9.30;77.50;;;;;;5091034;28;20186;-60
2022/04/03 11:56:25;;;;;;;1.20;0.90;;;9.10;72.70;;;;;;5095455;28;20170;-60
2022/04/03 11:58:59;;;;;;;1.05;0.82;;;9.20;78.90;;;;;;5095181;28;20182;-60
2022/04/03 12:01:26;;;;;;;1.23;0.95;;;9.00;79.70;;;;;;5095354;28;20170;-60
2022/04/03 12:04:12;;;;;;;2.38;1.27;;;9.00;82.10;;;;;;5095325;28;20189;-60
2022/04/03 12:06:39;;;;;;;2.97;1.30;;;9.00;89.60;;;;;;5095142;28;20170;-60
2022/04/03 12:09:16;;;;;;;3.42;1.95;;;9.00;93.20;;;;;;5094966;28;20541;-60
2022/04/03 12:11:49;;;;;;;1.90;1.10;;;9.00;91.30;;;;;;5095402;28;20223;-61
2022/04/03 12:14:23;;;;;;;2.75;1.30;;;9.00;95.10;;;;;;5095109;28;20166;-60
2022/04/03 12:16:59;;;;;;;1.35;1.20;;;9.00;98.00;;;;;;5094978;28;20169;-60
2022/04/03 12:19:25;;;;;;;2.35;1.30;;;9.20;98.40;;;;;;5094901;28;20199;-60
2022/04/03 12:22:04;;;;;;;2.90;1.60;;;9.50;97.40;;;;;;5094721;28;20532;-60
2022/04/03 12:24:31;;;;;;;1.95;1.38;;;9.70;98.60;;;;;;5076704;28;20546;-60
2022/04/03 12:27:07;;;;;;;1.60;1.15;;;9.60;96.20;;;;;;5094927;28;20201;-61
2022/04/03 12:29:35;;;;;;;3.10;1.20;;;9.30;95.50;;;;;;5094655;28;20209;-60
2022/04/03 12:32:06;;;;;;;2.72;1.48;;;9.30;96.80;;;;;;5094500;28;20166;-60
2022/04/03 12:34:34;;;;;;;4.28;2.10;;;9.20;95.00;;;;;;5094882;28;20158;-60
2022/04/03 12:37:02;;;;;;;1.88;0.98;;;9.10;94.80;;;;;;5094607;28;20636;-60
2022/04/03 12:39:28;;;;;;;2.55;1.73;;;9.30;95.80;;;;;;5094802;28;20712;-60
2022/04/03 12:41:55;;;;;;;2.15;1.10;;;9.70;96.80;;;;;;5094427;28;20174;-60
2022/04/03 12:44:21;;;;;;;1.30;1.20;;;10.20;95.00;;;;;;5076205;28;20209;-60
2022/04/03 12:46:46;;;;;;;3.45;1.73;;;10.60;94.20;;;;;;5094262;28;20653;-60
2022/04/03 12:49:17;;;;;;;3.42;1.35;;;10.70;92.10;;;;;;5093475;28;20205;-61
2022/04/03 12:51:47;;;;;;;1.63;0.85;;;10.60;91.70;;;;;;5094199;28;20218;-60
2022/04/03 12:54:13;;;;;;;2.20;1.30;;;10.40;91.50;;;;;;5094191;28;20632;-60
2022/04/03 12:59:22;;;;;;;2.35;1.88;;;10.20;95.60;;;;;;5094107;28;20230;-61
2022/04/03 13:01:53;;;;;;;4.45;3.25;;;10.40;94.40;;;;;;5076138;28;20170;-60